Time;durP1;ratioP1;P1;durP2;ratioP2;P2;SDS_P1;SDS_P2;PMS_P1;PMS_P2;Temp;Humidity;BMP_temperature;BMP_pressure;BME280_temperature;BME280_humidity;BME280_pressure;Samples;Min_cycle;Max_cycle;Signal;HPM_P1;HPM_P2
2023/10/29 00:00:06;;;;;;;3.33;1.27;;;13.50;99.90;;;;;;6273167;22;20003;-84
2023/10/29 00:02:31;;;;;;;2.20;0.70;;;13.50;99.90;;;;;;6273342;22;20000;-83
2023/10/29 00:04:57;;;;;;;1.23;0.68;;;13.50;99.90;;;;;;6272830;22;20396;-84
2023/10/29 00:07:22;;;;;;;2.40;0.95;;;13.50;99.90;;;;;;6246123;22;20008;-84
2023/10/29 00:09:48;;;;;;;1.30;0.98;;;13.60;99.90;;;;;;6272487;22;19995;-84
2023/10/29 00:12:13;;;;;;;3.45;0.80;;;13.60;99.90;;;;;;6273908;22;20000;-84
2023/10/29 00:14:39;;;;;;;1.80;0.90;;;13.70;99.90;;;;;;6273046;22;20437;-84
2023/10/29 00:17:04;;;;;;;1.95;0.85;;;13.70;99.90;;;;;;6272882;22;20011;-84
2023/10/29 00:19:32;;;;;;;1.88;0.55;;;13.70;99.90;;;;;;6273049;22;20073;-83
2023/10/29 00:21:57;;;;;;;2.72;0.55;;;13.70;99.90;;;;;;6272978;22;20004;-84
2023/10/29 00:24:23;;;;;;;1.95;0.80;;;13.70;99.90;;;;;;6272706;22;20329;-83
2023/10/29 00:26:48;;;;;;;1.10;0.60;;;13.70;99.90;;;;;;6272861;22;20000;-83
2023/10/29 00:29:14;;;;;;;3.88;0.77;;;13.80;99.90;;;;;;6246233;22;20003;-84
2023/10/29 00:31:39;;;;;;;2.60;0.50;;;13.80;99.90;;;;;;6245842;22;20004;-84
2023/10/29 00:34:05;;;;;;;1.40;0.75;;;13.80;99.90;;;;;;6272541;22;20035;-83
2023/10/29 00:36:30;;;;;;;2.60;1.10;;;13.80;99.90;;;;;;6273009;22;20475;-84
2023/10/29 00:38:56;;;;;;;1.48;0.80;;;13.80;99.90;;;;;;6271753;22;20019;-85
2023/10/29 00:41:21;;;;;;;0.88;0.50;;;13.80;99.90;;;;;;6273043;22;20053;-84
2023/10/29 00:43:47;;;;;;;1.77;0.95;;;13.80;99.90;;;;;;6272522;22;20067;-83
2023/10/29 00:46:15;;;;;;;1.73;0.60;;;13.90;99.90;;;;;;6273067;22;20039;-83
2023/10/29 00:48:41;;;;;;;1.60;0.95;;;13.80;99.90;;;;;;6245823;22;20003;-83
2023/10/29 00:51:07;;;;;;;4.10;0.80;;;13.70;99.90;;;;;;6272665;22;20008;-83
2023/10/29 00:53:33;;;;;;;1.55;0.50;;;13.70;99.90;;;;;;6272028;22;20073;-83
2023/10/29 00:56:00;;;;;;;2.85;0.90;;;13.80;99.90;;;;;;6272742;22;20315;-84
2023/10/29 00:58:27;;;;;;;2.03;0.63;;;13.70;99.90;;;;;;6272441;22;20011;-84
2023/10/29 01:00:52;;;;;;;2.58;0.75;;;13.80;99.90;;;;;;6272449;22;20010;-83
2023/10/29 01:03:18;;;;;;;1.48;0.65;;;13.80;99.90;;;;;;6272591;22;20000;-83
2023/10/29 01:05:48;;;;;;;4.70;0.80;;;13.80;99.90;;;;;;6272852;22;20073;-83
2023/10/29 01:08:14;;;;;;;1.75;0.77;;;13.80;99.90;;;;;;6272501;22;20019;-83
2023/10/29 01:10:39;;;;;;;2.35;1.00;;;13.80;99.90;;;;;;6272577;22;20000;-83
2023/10/29 01:13:05;;;;;;;3.38;0.70;;;13.80;99.90;;;;;;6272038;22;20007;-82
2023/10/29 01:15:30;;;;;;;2.42;0.90;;;13.80;99.90;;;;;;6272613;22;20437;-83
2023/10/29 01:17:56;;;;;;;1.38;0.68;;;13.90;99.90;;;;;;6272255;22;20425;-84
2023/10/29 01:20:22;;;;;;;1.60;0.82;;;13.80;99.90;;;;;;6272701;22;19999;-83
2023/10/29 01:22:48;;;;;;;2.08;0.77;;;13.80;99.90;;;;;;6271833;22;20010;-83
2023/10/29 01:25:13;;;;;;;1.25;0.65;;;13.90;99.90;;;;;;6272990;22;19999;-83
2023/10/29 01:27:39;;;;;;;0.52;0.43;;;13.90;99.90;;;;;;6272182;22;20175;-84
2023/10/29 01:30:06;;;;;;;2.88;0.73;;;14.00;99.90;;;;;;6272097;22;20011;-83
2023/10/29 01:32:32;;;;;;;2.53;0.77;;;13.90;99.90;;;;;;6245543;22;20014;-83
2023/10/29 01:34:58;;;;;;;3.67;0.82;;;13.90;99.90;;;;;;6244924;22;20008;-83
2023/10/29 01:37:24;;;;;;;2.00;0.50;;;14.00;99.90;;;;;;6271358;22;20079;-80
2023/10/29 01:39:49;;;;;;;2.22;0.80;;;13.90;99.90;;;;;;6272391;22;20007;-83
2023/10/29 01:42:15;;;;;;;1.30;0.82;;;14.00;99.90;;;;;;6272379;22;20030;-84
2023/10/29 01:44:40;;;;;;;3.40;0.63;;;14.00;99.90;;;;;;6272630;22;20031;-84
2023/10/29 01:47:06;;;;;;;0.82;0.57;;;14.00;99.90;;;;;;6272074;22;20010;-83
2023/10/29 01:49:33;;;;;;;1.85;0.57;;;14.00;99.90;;;;;;6272386;22;20000;-84
2023/10/29 01:51:58;;;;;;;2.03;0.88;;;14.00;99.90;;;;;;6271566;22;20027;-84
2023/10/29 01:54:24;;;;;;;1.83;0.82;;;14.00;99.90;;;;;;6272501;22;20417;-84
2023/10/29 01:56:50;;;;;;;1.75;0.80;;;14.00;99.90;;;;;;6271949;22;20054;-82
2023/10/29 01:59:15;;;;;;;2.10;0.85;;;14.00;99.90;;;;;;6272425;22;20000;-85
2023/10/29 02:01:42;;;;;;;1.17;0.70;;;14.00;99.90;;;;;;6272096;22;20003;-83
2023/10/29 02:04:09;;;;;;;4.05;0.80;;;14.00;99.90;;;;;;6271273;22;20000;-83
2023/10/29 02:06:38;;;;;;;2.63;0.73;;;14.10;99.90;;;;;;6268423;22;20004;-82
2023/10/29 02:09:08;;;;;;;2.47;0.73;;;14.00;99.90;;;;;;6269343;22;20060;-83
2023/10/29 02:11:35;;;;;;;1.83;0.70;;;14.00;99.90;;;;;;6269759;22;20127;-83
2023/10/29 02:14:01;;;;;;;3.00;0.93;;;14.00;99.90;;;;;;6269765;22;20000;-82
2023/10/29 02:16:27;;;;;;;2.63;0.77;;;14.00;99.90;;;;;;6269915;22;20062;-83
2023/10/29 02:18:52;;;;;;;2.38;0.90;;;14.00;99.90;;;;;;6269662;22;20018;-83
2023/10/29 02:21:18;;;;;;;2.28;0.60;;;14.00;99.90;;;;;;6271007;22;19996;-82
2023/10/29 02:23:43;;;;;;;1.75;0.40;;;14.10;99.90;;;;;;6273334;22;19996;-83
2023/10/29 02:26:09;;;;;;;2.55;0.70;;;14.10;99.90;;;;;;6274137;22;19995;-83
2023/10/29 02:28:34;;;;;;;1.45;0.52;;;14.10;99.90;;;;;;6246870;22;20014;-83
2023/10/29 02:31:00;;;;;;;2.35;1.02;;;14.20;99.90;;;;;;6273291;22;20000;-82
2023/10/29 02:33:26;;;;;;;1.67;0.50;;;14.20;99.90;;;;;;6274169;22;20006;-82
2023/10/29 02:35:51;;;;;;;2.38;1.00;;;14.20;99.90;;;;;;6273377;22;20457;-83
2023/10/29 02:38:18;;;;;;;1.35;0.55;;;14.30;99.90;;;;;;6273804;22;20078;-83
2023/10/29 02:40:44;;;;;;;2.70;0.50;;;14.30;99.90;;;;;;6274143;22;20325;-83
2023/10/29 02:43:10;;;;;;;2.85;0.50;;;14.30;99.90;;;;;;6274011;22;20057;-83
2023/10/29 02:45:36;;;;;;;1.45;0.40;;;14.30;99.90;;;;;;6274079;22;20081;-83
2023/10/29 02:48:02;;;;;;;3.40;0.65;;;14.40;99.90;;;;;;6273689;22;20004;-82
2023/10/29 02:50:27;;;;;;;1.20;0.50;;;14.40;99.90;;;;;;6273330;22;20004;-82
2023/10/29 02:52:53;;;;;;;2.28;0.57;;;14.40;99.90;;;;;;6273608;22;20080;-82
2023/10/29 02:55:18;;;;;;;1.63;0.70;;;14.40;99.90;;;;;;6246664;22;20379;-82
2023/10/29 02:57:44;;;;;;;2.58;0.93;;;14.40;99.90;;;;;;6273865;22;20015;-82
2023/10/29 03:00:12;;;;;;;0.95;0.50;;;14.40;99.90;;;;;;6246494;22;19992;-82
2023/10/29 03:02:38;;;;;;;1.08;0.45;;;14.40;99.90;;;;;;6274003;22;20000;-81
2023/10/29 03:05:04;;;;;;;3.25;0.40;;;14.30;99.90;;;;;;6272850;22;20495;-83
2023/10/29 03:07:30;;;;;;;3.63;1.33;;;14.30;99.90;;;;;;6273831;22;20114;-82
2023/10/29 03:09:56;;;;;;;1.75;0.60;;;14.20;99.90;;;;;;6273448;22;20329;-82
2023/10/29 03:12:22;;;;;;;2.85;0.73;;;14.20;99.90;;;;;;6273858;22;20004;-82
2023/10/29 03:14:47;;;;;;;2.88;0.57;;;14.20;99.90;;;;;;6273466;22;20000;-81
2023/10/29 03:17:13;;;;;;;1.83;0.60;;;14.10;99.90;;;;;;6273957;22;20018;-81
2023/10/29 03:19:39;;;;;;;0.85;0.43;;;14.10;99.90;;;;;;6272979;22;20000;-83
2023/10/29 03:22:05;;;;;;;5.82;0.82;;;14.10;99.90;;;;;;6273386;22;20378;-82
2023/10/29 03:24:30;;;;;;;1.70;0.40;;;14.10;99.90;;;;;;6246369;22;20452;-82
2023/10/29 03:26:56;;;;;;;2.17;0.40;;;14.20;99.90;;;;;;6273234;22;20026;-82
2023/10/29 03:29:21;;;;;;;1.77;0.50;;;14.20;99.90;;;;;;6273372;22;20371;-82
2023/10/29 03:31:47;;;;;;;1.67;0.40;;;14.20;99.90;;;;;;6274015;22;20445;-82
2023/10/29 03:34:13;;;;;;;2.58;0.43;;;14.20;99.90;;;;;;6272934;22;20003;-82
2023/10/29 03:36:39;;;;;;;1.75;0.38;;;14.20;99.90;;;;;;6246606;22;20082;-82
2023/10/29 03:39:05;;;;;;;1.48;0.70;;;14.20;99.90;;;;;;6272880;22;20018;-82
2023/10/29 03:41:31;;;;;;;1.52;0.43;;;14.10;99.90;;;;;;6273832;22;20067;-83
2023/10/29 03:43:57;;;;;;;1.00;0.40;;;14.10;99.90;;;;;;6273466;22;20303;-81
2023/10/29 03:46:22;;;;;;;2.35;0.60;;;14.20;99.90;;;;;;6273786;22;20007;-83
2023/10/29 03:48:48;;;;;;;2.10;0.50;;;14.10;99.90;;;;;;6273137;22;20417;-82
2023/10/29 03:51:14;;;;;;;1.20;0.50;;;14.20;99.90;;;;;;6273480;22;20027;-82
2023/10/29 03:53:40;;;;;;;3.05;0.50;;;14.20;99.90;;;;;;6273145;22;19996;-82
2023/10/29 03:56:06;;;;;;;1.70;0.60;;;14.20;99.90;;;;;;6273280;22;20376;-82
2023/10/29 03:58:32;;;;;;;3.00;0.50;;;14.30;99.90;;;;;;6272965;22;20087;-81
2023/10/29 04:00:58;;;;;;;2.08;0.47;;;14.30;99.90;;;;;;6272523;22;20000;-82
2023/10/29 04:03:23;;;;;;;1.75;0.52;;;14.30;99.90;;;;;;6273057;22;20000;-82
2023/10/29 04:05:49;;;;;;;3.72;0.47;;;14.20;99.90;;;;;;6273110;22;20000;-82
2023/10/29 04:08:16;;;;;;;1.77;0.50;;;14.20;99.90;;;;;;6273346;22;20089;-82
2023/10/29 04:10:42;;;;;;;1.60;0.40;;;14.20;99.90;;;;;;6273653;22;20004;-82
2023/10/29 04:13:07;;;;;;;1.52;0.40;;;14.10;99.90;;;;;;6272687;22;20008;-82
2023/10/29 04:15:33;;;;;;;1.20;0.40;;;14.10;99.90;;;;;;6272264;22;20054;-82
2023/10/29 04:17:59;;;;;;;1.70;0.60;;;14.10;99.90;;;;;;6272460;22;20065;-82
2023/10/29 04:20:24;;;;;;;2.80;0.70;;;14.00;99.90;;;;;;6272890;22;20464;-82
2023/10/29 04:22:50;;;;;;;1.88;0.57;;;14.00;99.90;;;;;;6272607;22;19996;-82
2023/10/29 04:25:15;;;;;;;1.20;0.40;;;14.00;99.90;;;;;;6273104;22;19996;-81
2023/10/29 04:27:41;;;;;;;2.47;0.50;;;14.00;99.90;;;;;;6273234;22;20085;-83
2023/10/29 04:30:07;;;;;;;1.38;0.40;;;14.00;99.90;;;;;;6272266;22;20000;-82
2023/10/29 04:32:32;;;;;;;1.38;0.40;;;14.00;99.90;;;;;;6272857;22;20004;-82
2023/10/29 04:34:58;;;;;;;1.88;0.43;;;13.90;99.90;;;;;;6272725;22;20027;-81
2023/10/29 04:37:23;;;;;;;1.85;0.40;;;13.90;99.90;;;;;;6272460;22;20425;-78
2023/10/29 04:39:50;;;;;;;0.85;0.30;;;14.00;99.90;;;;;;6273001;22;20007;-82
2023/10/29 04:42:16;;;;;;;1.42;0.30;;;13.90;99.90;;;;;;6245535;22;20004;-81
2023/10/29 04:44:42;;;;;;;1.05;0.30;;;13.90;99.90;;;;;;6272686;22;20019;-82
2023/10/29 04:47:08;;;;;;;2.85;0.43;;;13.90;99.90;;;;;;6271935;22;20349;-81
2023/10/29 04:49:33;;;;;;;1.88;0.40;;;14.00;99.90;;;;;;6272734;22;20082;-82
2023/10/29 04:51:59;;;;;;;1.10;0.47;;;14.10;99.90;;;;;;6272433;22;20004;-82
2023/10/29 04:54:24;;;;;;;1.98;0.60;;;14.10;99.90;;;;;;6272861;22;20491;-82
2023/10/29 04:56:50;;;;;;;1.95;0.60;;;14.20;99.90;;;;;;6272522;22;20000;-83
2023/10/29 04:59:15;;;;;;;1.63;0.32;;;14.20;99.90;;;;;;6272035;22;20437;-84
2023/10/29 05:01:41;;;;;;;0.75;0.30;;;14.20;99.90;;;;;;6272970;22;20031;-85
2023/10/29 05:04:07;;;;;;;2.85;0.40;;;14.20;99.90;;;;;;6272411;22;20362;-84
2023/10/29 05:06:32;;;;;;;2.70;0.65;;;14.20;99.90;;;;;;6272647;22;20299;-84
2023/10/29 05:08:58;;;;;;;1.48;0.50;;;14.20;99.90;;;;;;6272354;22;20004;-83
2023/10/29 05:11:24;;;;;;;2.17;0.40;;;14.20;99.90;;;;;;6272607;22;20000;-84
2023/10/29 05:13:49;;;;;;;2.10;0.60;;;14.20;99.90;;;;;;6271908;22;20000;-84
2023/10/29 05:16:15;;;;;;;4.00;0.85;;;14.20;99.90;;;;;;6272742;22;20393;-83
2023/10/29 05:18:41;;;;;;;1.65;0.60;;;14.20;99.90;;;;;;6272940;22;20000;-83
2023/10/29 05:21:07;;;;;;;1.40;0.47;;;14.10;99.90;;;;;;6272182;22;20082;-84
2023/10/29 05:23:34;;;;;;;1.48;0.45;;;14.10;99.90;;;;;;6272434;22;20329;-83
2023/10/29 05:25:59;;;;;;;1.52;0.47;;;14.00;99.90;;;;;;6272284;22;20007;-83
2023/10/29 05:28:26;;;;;;;1.40;0.50;;;14.00;99.90;;;;;;6272025;22;20433;-83
2023/10/29 05:30:52;;;;;;;2.22;0.40;;;14.00;99.90;;;;;;6272018;22;20004;-83
2023/10/29 05:33:18;;;;;;;2.03;0.63;;;14.00;99.90;;;;;;6272693;22;20003;-83
2023/10/29 05:35:44;;;;;;;3.63;0.77;;;14.00;99.90;;;;;;6272372;22;20425;-83
2023/10/29 05:38:09;;;;;;;5.28;1.55;;;13.90;99.90;;;;;;6272099;22;20290;-82
2023/10/29 05:40:35;;;;;;;1.85;0.40;;;13.90;99.90;;;;;;6272409;22;20315;-82
2023/10/29 05:43:00;;;;;;;2.47;0.50;;;13.80;99.90;;;;;;6271655;22;20000;-83
2023/10/29 05:45:28;;;;;;;3.55;0.93;;;13.80;99.90;;;;;;6272219;22;20007;-83
2023/10/29 05:47:55;;;;;;;5.97;0.77;;;13.80;99.90;;;;;;6270817;22;20011;-82
2023/10/29 05:50:21;;;;;;;4.18;0.50;;;13.80;99.90;;;;;;6269809;22;20007;-82
2023/10/29 05:52:48;;;;;;;2.03;0.40;;;13.80;99.90;;;;;;6271363;22;20004;-82
2023/10/29 05:55:13;;;;;;;3.55;0.63;;;13.80;99.90;;;;;;6271490;22;20010;-82
2023/10/29 05:57:39;;;;;;;4.05;0.45;;;13.80;99.90;;;;;;6271453;22;20660;-82
2023/10/29 06:00:05;;;;;;;2.40;0.50;;;13.80;99.90;;;;;;6271822;22;20008;-83
2023/10/29 06:02:31;;;;;;;3.38;0.32;;;13.70;99.90;;;;;;6272418;22;20004;-83
2023/10/29 06:04:56;;;;;;;2.05;0.60;;;13.70;99.90;;;;;;6244958;22;20014;-84
2023/10/29 06:07:22;;;;;;;4.68;0.70;;;13.70;99.90;;;;;;6272355;22;20418;-83
2023/10/29 06:09:48;;;;;;;0.82;0.30;;;13.60;99.90;;;;;;6272154;22;20302;-83
2023/10/29 06:12:13;;;;;;;1.63;0.40;;;13.60;99.90;;;;;;6272054;22;20004;-82
2023/10/29 06:14:39;;;;;;;3.20;0.70;;;13.50;99.90;;;;;;6244942;22;20094;-83
2023/10/29 06:17:04;;;;;;;2.47;0.60;;;13.50;99.90;;;;;;6244754;22;20003;-83
2023/10/29 06:19:32;;;;;;;2.90;0.60;;;13.50;99.90;;;;;;6271912;22;20007;-82
2023/10/29 06:21:57;;;;;;;1.42;0.35;;;13.50;99.90;;;;;;6271702;22;20368;-82
2023/10/29 06:24:23;;;;;;;4.03;0.55;;;13.50;99.90;;;;;;6271687;22;20082;-82
2023/10/29 06:26:48;;;;;;;2.97;0.70;;;13.60;99.90;;;;;;6271697;22;20122;-82
2023/10/29 06:29:14;;;;;;;1.27;0.30;;;13.60;99.90;;;;;;6272132;22;20066;-82
2023/10/29 06:31:40;;;;;;;2.45;0.28;;;13.60;99.90;;;;;;6271989;22;20077;-82
2023/10/29 06:34:05;;;;;;;1.45;0.30;;;13.60;99.90;;;;;;6271862;22;20000;-83
2023/10/29 06:36:31;;;;;;;2.28;0.30;;;13.50;99.90;;;;;;6272074;22;20014;-82
2023/10/29 06:38:57;;;;;;;3.55;0.30;;;13.50;99.90;;;;;;6271601;22;20442;-82
2023/10/29 06:41:22;;;;;;;2.45;0.40;;;13.50;99.90;;;;;;6271622;22;20121;-83
2023/10/29 06:43:48;;;;;;;2.67;0.20;;;13.50;99.90;;;;;;6271856;22;20000;-82
2023/10/29 06:46:17;;;;;;;1.85;0.40;;;13.50;99.90;;;;;;6272244;22;20004;-82
2023/10/29 06:48:42;;;;;;;4.25;0.47;;;13.50;99.90;;;;;;6272110;22;20002;-83
2023/10/29 06:51:11;;;;;;;3.63;0.43;;;13.50;99.90;;;;;;6271753;22;19999;-82
2023/10/29 06:53:38;;;;;;;4.18;0.40;;;13.50;99.90;;;;;;6271690;22;20004;-82
2023/10/29 06:56:04;;;;;;;3.63;0.65;;;13.40;99.90;;;;;;6271314;22;20499;-82
2023/10/29 06:58:30;;;;;;;4.97;0.40;;;13.40;99.90;;;;;;6271747;22;20087;-82
2023/10/29 07:01:02;;;;;;;2.88;0.90;;;13.40;99.90;;;;;;6271798;22;20090;-82
2023/10/29 07:03:27;;;;;;;1.17;0.40;;;13.40;99.90;;;;;;6271491;22;20082;-81
2023/10/29 07:05:53;;;;;;;6.13;0.98;;;13.30;99.90;;;;;;6271692;22;20031;-81
2023/10/29 07:08:19;;;;;;;3.13;0.60;;;13.30;99.90;;;;;;6271542;22;20019;-81
2023/10/29 07:10:46;;;;;;;2.50;0.52;;;13.30;99.90;;;;;;6273241;22;20004;-82
2023/10/29 07:13:12;;;;;;;5.28;0.57;;;13.30;99.90;;;;;;6273857;22;20441;-81
2023/10/29 07:15:39;;;;;;;4.22;0.85;;;13.30;99.90;;;;;;6273472;22;19999;-81
2023/10/29 07:18:05;;;;;;;4.65;0.95;;;13.30;99.90;;;;;;6273124;22;20378;-82
2023/10/29 07:20:31;;;;;;;3.88;0.50;;;13.40;99.90;;;;;;6246535;22;20038;-81
2023/10/29 07:22:56;;;;;;;4.82;0.82;;;13.40;99.90;;;;;;6273349;22;19996;-77
2023/10/29 07:25:22;;;;;;;2.88;0.65;;;13.50;99.90;;;;;;6273260;22;20483;-77
2023/10/29 07:27:48;;;;;;;6.72;0.70;;;13.50;99.90;;;;;;6246050;22;19999;-77
2023/10/29 07:30:13;;;;;;;7.07;0.68;;;13.60;99.90;;;;;;6273083;22;20330;-77
2023/10/29 07:32:39;;;;;;;4.10;0.70;;;13.70;99.90;;;;;;6245894;22;20000;-77
2023/10/29 07:35:04;;;;;;;4.13;0.80;;;13.70;99.90;;;;;;6246119;22;20000;-77
2023/10/29 07:37:30;;;;;;;3.88;1.08;;;13.70;99.90;;;;;;6245745;22;20034;-76
2023/10/29 07:39:56;;;;;;;4.20;0.60;;;13.70;99.90;;;;;;6272823;22;20031;-77
2023/10/29 07:42:21;;;;;;;8.45;0.85;;;13.70;99.90;;;;;;6246223;22;20027;-77
2023/10/29 07:44:47;;;;;;;9.75;0.95;;;13.60;99.90;;;;;;6246318;22;20376;-77
2023/10/29 07:47:12;;;;;;;4.22;0.60;;;13.60;99.90;;;;;;6272874;22;20003;-76
2023/10/29 07:49:38;;;;;;;2.08;0.65;;;13.60;99.90;;;;;;6273311;22;20299;-77
2023/10/29 07:52:05;;;;;;;5.82;0.80;;;13.60;99.90;;;;;;6272800;22;19999;-77
2023/10/29 07:54:30;;;;;;;7.22;0.60;;;13.60;99.90;;;;;;6272790;22;20007;-77
2023/10/29 07:56:56;;;;;;;5.63;1.40;;;13.60;99.90;;;;;;6272980;22;20004;-77
2023/10/29 07:59:21;;;;;;;6.05;0.60;;;13.60;99.90;;;;;;6273036;22;20042;-77
2023/10/29 08:01:47;;;;;;;4.57;0.60;;;13.70;99.90;;;;;;6245862;22;20050;-77
2023/10/29 08:04:12;;;;;;;7.95;0.85;;;13.70;99.90;;;;;;6246112;22;20380;-76
2023/10/29 08:06:38;;;;;;;4.47;0.80;;;13.70;99.90;;;;;;6272577;22;20329;-76
2023/10/29 08:09:04;;;;;;;4.95;1.00;;;13.70;99.90;;;;;;6271585;22;20422;-76
2023/10/29 08:11:29;;;;;;;5.80;1.05;;;13.70;99.90;;;;;;6273028;22;20007;-76
2023/10/29 08:13:56;;;;;;;5.65;0.80;;;13.70;99.90;;;;;;6272706;22;20003;-76
2023/10/29 08:16:22;;;;;;;10.57;1.98;;;13.70;99.90;;;;;;6272029;22;20514;-75
2023/10/29 08:18:48;;;;;;;2.92;0.60;;;13.80;99.90;;;;;;6272625;22;19996;-75
2023/10/29 08:21:15;;;;;;;4.75;0.90;;;13.80;99.90;;;;;;6245251;22;20014;-76
2023/10/29 08:23:40;;;;;;;7.13;0.90;;;13.80;99.90;;;;;;6272448;22;19996;-76
2023/10/29 08:26:06;;;;;;;6.72;1.45;;;13.80;99.90;;;;;;6272685;22;20006;-76
2023/10/29 08:28:31;;;;;;;6.15;1.13;;;13.90;99.90;;;;;;6272945;22;20039;-76
2023/10/29 08:30:57;;;;;;;7.18;1.23;;;13.90;99.90;;;;;;6272498;22;20007;-76
2023/10/29 08:33:22;;;;;;;6.18;1.23;;;14.00;99.90;;;;;;6272763;22;20068;-76
2023/10/29 08:35:48;;;;;;;5.82;1.00;;;14.00;99.90;;;;;;6272904;22;20029;-76
2023/10/29 08:38:14;;;;;;;6.18;1.10;;;14.10;99.90;;;;;;6272158;22;20807;-76
2023/10/29 08:40:39;;;;;;;3.92;0.90;;;14.10;99.90;;;;;;6272892;22;20383;-76
2023/10/29 08:43:06;;;;;;;9.57;1.50;;;14.20;99.90;;;;;;6272388;22;20417;-76
2023/10/29 08:45:31;;;;;;;9.40;2.45;;;14.30;99.90;;;;;;6272764;22;20004;-76
2023/10/29 08:47:57;;;;;;;6.00;0.90;;;14.40;99.90;;;;;;6272621;22;20027;-77
2023/10/29 08:50:22;;;;;;;7.80;2.45;;;14.50;99.90;;;;;;6272662;22;20003;-76
2023/10/29 08:52:48;;;;;;;4.93;1.02;;;14.50;99.90;;;;;;6271992;22;20010;-76
2023/10/29 08:55:14;;;;;;;9.80;1.50;;;14.60;99.90;;;;;;6273061;22;20055;-76
2023/10/29 08:57:39;;;;;;;6.20;1.70;;;14.60;99.90;;;;;;6272632;22;20008;-76
2023/10/29 09:00:05;;;;;;;8.32;1.17;;;14.60;99.90;;;;;;6245045;22;20083;-76
2023/10/29 09:02:31;;;;;;;8.07;1.33;;;14.70;99.90;;;;;;6272534;22;19996;-76
2023/10/29 09:04:57;;;;;;;10.35;1.33;;;14.80;99.90;;;;;;6244386;22;20038;-76
2023/10/29 09:07:24;;;;;;;4.35;0.90;;;14.80;99.90;;;;;;6244266;22;20042;-76
2023/10/29 09:09:50;;;;;;;7.32;1.40;;;14.90;99.90;;;;;;6272285;22;20003;-76
2023/10/29 09:12:15;;;;;;;9.63;2.20;;;14.90;99.90;;;;;;6245454;22;20007;-76
2023/10/29 09:14:41;;;;;;;6.85;1.30;;;15.00;99.90;;;;;;6272895;22;20031;-76
2023/10/29 09:17:06;;;;;;;4.78;1.00;;;15.10;99.90;;;;;;6272038;22;20321;-77
2023/10/29 09:19:32;;;;;;;7.88;1.27;;;15.20;99.90;;;;;;6272282;22;19996;-76
2023/10/29 09:21:58;;;;;;;9.38;1.38;;;15.20;99.90;;;;;;6244757;22;20032;-76
2023/10/29 09:24:24;;;;;;;6.10;1.00;;;15.20;99.90;;;;;;6272394;22;20417;-76
2023/10/29 09:26:49;;;;;;;5.25;0.68;;;15.20;99.90;;;;;;6245283;22;20008;-76
2023/10/29 09:29:16;;;;;;;5.32;0.82;;;15.10;99.90;;;;;;6245479;22;20379;-76
2023/10/29 09:31:42;;;;;;;7.88;1.42;;;15.10;99.90;;;;;;6272559;22;20448;-76
2023/10/29 09:34:08;;;;;;;4.90;0.75;;;15.20;99.90;;;;;;6272033;22;20057;-76
2023/10/29 09:36:33;;;;;;;5.72;0.90;;;15.20;99.90;;;;;;6271842;22;20055;-76
2023/10/29 09:38:59;;;;;;;7.00;1.17;;;15.20;99.90;;;;;;6271739;22;20098;-76
2023/10/29 09:41:25;;;;;;;9.38;0.98;;;15.30;99.90;;;;;;6272498;22;20027;-76
2023/10/29 09:43:53;;;;;;;4.63;0.60;;;15.40;99.90;;;;;;6272167;22;20007;-76
2023/10/29 09:46:20;;;;;;;4.95;0.73;;;15.50;99.90;;;;;;6272066;22;20406;-78
2023/10/29 09:48:46;;;;;;;4.10;0.70;;;15.60;99.90;;;;;;6272355;22;20010;-78
2023/10/29 09:51:12;;;;;;;4.10;0.55;;;15.70;99.90;;;;;;6271873;22;20012;-78
2023/10/29 09:53:38;;;;;;;6.50;1.00;;;15.70;99.90;;;;;;6245083;22;20015;-78
2023/10/29 09:56:10;;;;;;;7.15;1.00;;;15.70;99.90;;;;;;6272388;22;20081;-77
2023/10/29 09:58:36;;;;;;;6.47;1.05;;;15.60;99.90;;;;;;6271957;22;20011;-75
2023/10/29 10:01:04;;;;;;;3.65;1.10;;;15.50;99.90;;;;;;6245192;22;20004;-76
2023/10/29 10:03:30;;;;;;;5.63;0.98;;;15.50;99.90;;;;;;6244471;22;20004;-76
2023/10/29 10:05:57;;;;;;;5.90;1.05;;;15.60;99.90;;;;;;6272039;22;20401;-76
2023/10/29 10:08:24;;;;;;;5.82;0.63;;;15.70;99.90;;;;;;6271923;22;20082;-75
2023/10/29 10:10:50;;;;;;;4.40;0.60;;;15.80;99.90;;;;;;6272123;22;20007;-75
2023/10/29 10:13:16;;;;;;;4.57;0.98;;;15.90;99.90;;;;;;6271917;22;20003;-75
2023/10/29 10:15:43;;;;;;;4.97;1.05;;;15.90;99.90;;;;;;6272543;22;20000;-75
2023/10/29 10:18:11;;;;;;;7.03;1.08;;;15.90;99.90;;;;;;6244356;22;20018;-75
2023/10/29 10:20:36;;;;;;;2.67;0.45;;;15.80;99.90;;;;;;6272266;22;20054;-75
2023/10/29 10:23:09;;;;;;;3.55;0.50;;;15.80;99.90;;;;;;6271606;22;19999;-75
2023/10/29 10:25:35;;;;;;;5.68;1.23;;;15.70;99.90;;;;;;6272122;22;19999;-75
2023/10/29 10:28:03;;;;;;;6.00;1.13;;;15.60;99.90;;;;;;6271756;22;20010;-75
2023/10/29 10:30:33;;;;;;;6.50;1.10;;;15.60;99.90;;;;;;6271740;22;20006;-74
2023/10/29 10:33:14;;;;;;;8.38;1.50;;;15.60;99.90;;;;;;6270688;22;20007;-74
2023/10/29 10:35:44;;;;;;;6.57;1.40;;;15.60;99.90;;;;;;6269969;22;20000;-75
2023/10/29 10:38:11;;;;;;;6.60;1.27;;;15.60;99.90;;;;;;6243220;22;20018;-74
2023/10/29 10:40:37;;;;;;;4.55;1.10;;;15.60;99.90;;;;;;6244943;22;20030;-74
2023/10/29 10:43:04;;;;;;;9.93;1.08;;;15.60;99.90;;;;;;6271624;22;20015;-74
2023/10/29 10:45:31;;;;;;;4.13;0.90;;;15.60;99.90;;;;;;6273468;22;20327;-76
2023/10/29 10:48:00;;;;;;;6.40;1.23;;;15.60;99.90;;;;;;6272989;22;20007;-75
2023/10/29 10:50:27;;;;;;;7.10;1.15;;;15.60;99.90;;;;;;6273628;22;20007;-75
2023/10/29 10:52:54;;;;;;;4.90;1.17;;;15.50;99.90;;;;;;6273494;22;20329;-75
2023/10/29 10:55:20;;;;;;;5.00;1.33;;;15.50;99.90;;;;;;6273695;22;20000;-75
2023/10/29 10:57:49;;;;;;;4.45;1.00;;;15.50;99.90;;;;;;6273810;22;20090;-76
2023/10/29 11:00:16;;;;;;;7.22;1.42;;;15.40;99.90;;;;;;6273808;22;20020;-75
2023/10/29 11:02:43;;;;;;;7.00;1.20;;;15.40;99.90;;;;;;6273520;22;20417;-75
2023/10/29 11:05:10;;;;;;;7.82;1.20;;;15.40;99.90;;;;;;6273190;22;20041;-75
2023/10/29 11:07:37;;;;;;;8.45;1.02;;;15.40;99.90;;;;;;6273584;22;20018;-75
2023/10/29 11:10:04;;;;;;;4.80;1.02;;;15.40;99.90;;;;;;6273303;22;20110;-75
2023/10/29 11:12:34;;;;;;;6.60;1.10;;;15.50;99.90;;;;;;6273360;22;19991;-75
2023/10/29 11:15:25;;;;;;;5.25;1.10;;;15.40;99.90;;;;;;6273221;22;20011;-75
2023/10/29 11:17:54;;;;;;;9.98;1.15;;;15.50;99.90;;;;;;6272780;22;20030;-75
2023/10/29 11:20:38;;;;;;;7.28;1.45;;;15.40;99.90;;;;;;6273272;22;20004;-75
2023/10/29 11:23:22;;;;;;;;;;;15.40;99.90;;;;;;6246451;22;19996;-75
2023/10/29 11:25:49;;;;;;;6.70;1.10;;;15.40;99.90;;;;;;6273336;22;20382;-75
2023/10/29 11:28:24;;;;;;;5.38;1.35;;;15.40;99.90;;;;;;6273542;22;20002;-75
2023/10/29 11:31:23;;;;;;;5.20;1.25;;;15.40;99.90;;;;;;6272447;22;20007;-75
2023/10/29 11:33:54;;;;;;;7.00;1.30;;;15.50;99.90;;;;;;6190645;22;20409;-75
2023/10/29 11:36:37;;;;;;;6.55;1.02;;;15.50;99.90;;;;;;6273434;22;20015;-75
2023/10/29 11:39:19;;;;;;;7.87;1.43;;;15.50;99.90;;;;;;6272524;22;20019;-75
2023/10/29 11:41:48;;;;;;;5.40;1.25;;;15.50;99.90;;;;;;6273373;22;20007;-75
2023/10/29 11:44:25;;;;;;;4.63;0.95;;;15.40;99.90;;;;;;6273467;22;20000;-75
2023/10/29 11:47:03;;;;;;;5.78;0.98;;;15.40;99.90;;;;;;6271988;22;19996;-75
2023/10/29 11:49:30;;;;;;;7.90;0.80;;;15.50;99.90;;;;;;6273090;22;20075;-75
2023/10/29 11:52:03;;;;;;;3.28;0.85;;;15.60;99.90;;;;;;6272788;22;20004;-75
2023/10/29 11:54:33;;;;;;;8.27;1.02;;;15.60;99.90;;;;;;6245516;22;20291;-75
2023/10/29 11:56:59;;;;;;;5.57;1.20;;;15.60;99.90;;;;;;6245527;22;20011;-75
2023/10/29 11:59:26;;;;;;;8.20;1.30;;;15.70;99.90;;;;;;6271899;22;20008;-75
2023/10/29 12:01:53;;;;;;;5.88;1.10;;;15.60;99.90;;;;;;6272294;22;20000;-75
2023/10/29 12:04:18;;;;;;;5.63;1.00;;;15.70;99.90;;;;;;6271983;22;20042;-75
2023/10/29 12:06:46;;;;;;;5.43;1.13;;;15.70;99.90;;;;;;6272362;22;20425;-75
2023/10/29 12:09:22;;;;;;;6.35;1.08;;;15.70;99.90;;;;;;6245409;22;20004;-75
2023/10/29 12:11:52;;;;;;;7.65;1.10;;;15.80;99.90;;;;;;6245370;22;20012;-75
2023/10/29 12:14:36;;;;;;;4.78;1.52;;;15.80;99.90;;;;;;6244853;22;20000;-75
2023/10/29 12:17:01;;;;;;;6.30;1.15;;;15.90;99.90;;;;;;6244960;22;20444;-75
2023/10/29 12:19:37;;;;;;;7.65;1.38;;;15.90;99.90;;;;;;6272829;22;20004;-75
2023/10/29 12:22:23;;;;;;;6.88;1.40;;;15.90;99.90;;;;;;6272422;22;20050;-75
2023/10/29 12:24:53;;;;;;;8.23;1.20;;;15.90;99.90;;;;;;6244944;22;20000;-75
2023/10/29 12:27:21;;;;;;;5.47;1.40;;;15.90;99.90;;;;;;6272742;22;20000;-75
2023/10/29 12:29:47;;;;;;;5.93;1.70;;;15.90;99.90;;;;;;6244840;22;20004;-76
2023/10/29 12:32:21;;;;;;;5.55;1.55;;;15.90;99.90;;;;;;6272895;22;20007;-76
2023/10/29 12:34:49;;;;;;;8.85;1.42;;;16.00;99.90;;;;;;6272646;22;19996;-75
2023/10/29 12:37:30;;;;;;;7.95;1.15;;;16.00;99.90;;;;;;6245716;22;20095;-76
2023/10/29 12:39:59;;;;;;;8.48;1.45;;;16.10;99.90;;;;;;6272685;22;20086;-76
2023/10/29 12:42:54;;;;;;;4.93;1.02;;;16.10;99.90;;;;;;6272943;22;20004;-77
2023/10/29 12:45:24;;;;;;;4.47;1.13;;;16.20;99.90;;;;;;6272827;22;20004;-75